sensor_id;sensor_type;location;lat;lon;timestamp;P1;durP1;ratioP1;P2;durP2;ratioP2
38603;SDS011;24924;50.054;8.790;2023-06-14T00:00:58;4.93;;;2.83;;
38603;SDS011;24924;50.054;8.790;2023-06-14T00:03:24;5.40;;;2.72;;
38603;SDS011;24924;50.054;8.790;2023-06-14T00:05:51;5.20;;;3.03;;
38603;SDS011;24924;50.054;8.790;2023-06-14T00:08:17;8.07;;;3.53;;
38603;SDS011;24924;50.054;8.790;2023-06-14T00:10:44;5.22;;;3.08;;
38603;SDS011;24924;50.054;8.790;2023-06-14T00:13:10;6.90;;;3.17;;
38603;SDS011;24924;50.054;8.790;2023-06-14T00:15:37;4.85;;;2.92;;
38603;SDS011;24924;50.054;8.790;2023-06-14T00:18:03;5.82;;;3.22;;
38603;SDS011;24924;50.054;8.790;2023-06-14T00:20:30;5.03;;;3.20;;
38603;SDS011;24924;50.054;8.790;2023-06-14T00:22:58;4.72;;;2.97;;
38603;SDS011;24924;50.054;8.790;2023-06-14T00:25:25;7.43;;;3.40;;
38603;SDS011;24924;50.054;8.790;2023-06-14T00:27:51;5.40;;;3.20;;
38603;SDS011;24924;50.054;8.790;2023-06-14T00:30:21;5.30;;;2.92;;
38603;SDS011;24924;50.054;8.790;2023-06-14T00:32:47;5.30;;;3.00;;
38603;SDS011;24924;50.054;8.790;2023-06-14T00:35:13;4.95;;;2.78;;
38603;SDS011;24924;50.054;8.790;2023-06-14T00:37:39;5.10;;;2.78;;
38603;SDS011;24924;50.054;8.790;2023-06-14T00:40:07;4.85;;;2.92;;
38603;SDS011;24924;50.054;8.790;2023-06-14T00:42:33;5.25;;;2.88;;
38603;SDS011;24924;50.054;8.790;2023-06-14T00:44:59;5.27;;;2.67;;
38603;SDS011;24924;50.054;8.790;2023-06-14T00:47:26;6.47;;;2.90;;
38603;SDS011;24924;50.054;8.790;2023-06-14T00:49:53;6.22;;;2.67;;
38603;SDS011;24924;50.054;8.790;2023-06-14T00:52:20;4.40;;;2.65;;
38603;SDS011;24924;50.054;8.790;2023-06-14T00:54:47;6.20;;;3.25;;
38603;SDS011;24924;50.054;8.790;2023-06-14T00:57:13;5.20;;;2.77;;
38603;SDS011;24924;50.054;8.790;2023-06-14T00:59:48;5.05;;;2.70;;
38603;SDS011;24924;50.054;8.790;2023-06-14T01:02:15;7.05;;;3.28;;
38603;SDS011;24924;50.054;8.790;2023-06-14T01:04:43;5.78;;;3.25;;
38603;SDS011;24924;50.054;8.790;2023-06-14T01:07:11;5.65;;;3.10;;
38603;SDS011;24924;50.054;8.790;2023-06-14T01:09:48;4.77;;;2.90;;
38603;SDS011;24924;50.054;8.790;2023-06-14T01:15:06;4.80;;;2.60;;
38603;SDS011;24924;50.054;8.790;2023-06-14T01:17:33;5.13;;;2.88;;
38603;SDS011;24924;50.054;8.790;2023-06-14T01:20:03;4.40;;;2.75;;
38603;SDS011;24924;50.054;8.790;2023-06-14T01:22:35;5.03;;;3.20;;
38603;SDS011;24924;50.054;8.790;2023-06-14T01:25:01;5.10;;;2.78;;
38603;SDS011;24924;50.054;8.790;2023-06-14T01:27:27;4.50;;;2.40;;
38603;SDS011;24924;50.054;8.790;2023-06-14T01:29:57;6.53;;;2.80;;
38603;SDS011;24924;50.054;8.790;2023-06-14T01:32:25;6.88;;;3.42;;
38603;SDS011;24924;50.054;8.790;2023-06-14T01:34:52;4.27;;;2.67;;
38603;SDS011;24924;50.054;8.790;2023-06-14T01:37:19;5.53;;;2.92;;
38603;SDS011;24924;50.054;8.790;2023-06-14T01:39:46;6.88;;;2.90;;
38603;SDS011;24924;50.054;8.790;2023-06-14T01:42:17;5.32;;;2.85;;
38603;SDS011;24924;50.054;8.790;2023-06-14T01:44:44;5.22;;;3.10;;
38603;SDS011;24924;50.054;8.790;2023-06-14T01:47:13;5.00;;;2.47;;
38603;SDS011;24924;50.054;8.790;2023-06-14T01:49:40;5.03;;;2.83;;
38603;SDS011;24924;50.054;8.790;2023-06-14T01:52:07;4.32;;;2.42;;
38603;SDS011;24924;50.054;8.790;2023-06-14T01:54:35;5.03;;;3.03;;
38603;SDS011;24924;50.054;8.790;2023-06-14T01:57:03;3.88;;;2.17;;
38603;SDS011;24924;50.054;8.790;2023-06-14T01:59:29;4.40;;;2.33;;
38603;SDS011;24924;50.054;8.790;2023-06-14T02:01:56;4.72;;;2.50;;
38603;SDS011;24924;50.054;8.790;2023-06-14T02:04:22;5.05;;;2.78;;
38603;SDS011;24924;50.054;8.790;2023-06-14T02:06:48;4.90;;;2.97;;
38603;SDS011;24924;50.054;8.790;2023-06-14T02:09:14;5.03;;;2.60;;
38603;SDS011;24924;50.054;8.790;2023-06-14T02:11:40;4.40;;;2.53;;
38603;SDS011;24924;50.054;8.790;2023-06-14T02:14:06;7.50;;;3.38;;
38603;SDS011;24924;50.054;8.790;2023-06-14T02:16:37;5.43;;;2.72;;
38603;SDS011;24924;50.054;8.790;2023-06-14T02:19:04;4.63;;;2.43;;
38603;SDS011;24924;50.054;8.790;2023-06-14T02:21:31;5.18;;;2.90;;
38603;SDS011;24924;50.054;8.790;2023-06-14T02:23:56;4.53;;;2.47;;
38603;SDS011;24924;50.054;8.790;2023-06-14T02:26:23;4.97;;;2.75;;
38603;SDS011;24924;50.054;8.790;2023-06-14T02:28:49;4.67;;;2.50;;
38603;SDS011;24924;50.054;8.790;2023-06-14T02:31:15;5.43;;;2.67;;
38603;SDS011;24924;50.054;8.790;2023-06-14T02:33:41;4.88;;;2.53;;
38603;SDS011;24924;50.054;8.790;2023-06-14T02:36:07;5.22;;;2.70;;
38603;SDS011;24924;50.054;8.790;2023-06-14T02:38:33;4.90;;;2.47;;
38603;SDS011;24924;50.054;8.790;2023-06-14T02:40:59;5.35;;;2.42;;
38603;SDS011;24924;50.054;8.790;2023-06-14T02:43:28;4.82;;;2.60;;
38603;SDS011;24924;50.054;8.790;2023-06-14T02:45:54;4.63;;;2.65;;
38603;SDS011;24924;50.054;8.790;2023-06-14T02:48:20;4.73;;;2.53;;
38603;SDS011;24924;50.054;8.790;2023-06-14T02:50:46;5.07;;;2.77;;
38603;SDS011;24924;50.054;8.790;2023-06-14T02:53:12;4.13;;;2.22;;
38603;SDS011;24924;50.054;8.790;2023-06-14T02:55:38;4.40;;;2.60;;
38603;SDS011;24924;50.054;8.790;2023-06-14T02:58:06;7.05;;;2.88;;
38603;SDS011;24924;50.054;8.790;2023-06-14T03:00:33;4.37;;;2.43;;
38603;SDS011;24924;50.054;8.790;2023-06-14T03:03:01;4.53;;;2.55;;
38603;SDS011;24924;50.054;8.790;2023-06-14T03:05:27;4.45;;;2.42;;
38603;SDS011;24924;50.054;8.790;2023-06-14T03:07:54;5.30;;;2.70;;
38603;SDS011;24924;50.054;8.790;2023-06-14T03:10:20;5.20;;;2.85;;
38603;SDS011;24924;50.054;8.790;2023-06-14T03:12:48;4.27;;;2.00;;
38603;SDS011;24924;50.054;8.790;2023-06-14T03:15:16;5.07;;;2.40;;
38603;SDS011;24924;50.054;8.790;2023-06-14T03:17:45;4.40;;;2.72;;
38603;SDS011;24924;50.054;8.790;2023-06-14T03:20:15;5.03;;;2.30;;
38603;SDS011;24924;50.054;8.790;2023-06-14T03:22:41;4.85;;;2.75;;
38603;SDS011;24924;50.054;8.790;2023-06-14T03:25:12;4.67;;;2.40;;
38603;SDS011;24924;50.054;8.790;2023-06-14T03:27:39;3.88;;;2.17;;
38603;SDS011;24924;50.054;8.790;2023-06-14T03:30:06;4.55;;;2.38;;
38603;SDS011;24924;50.054;8.790;2023-06-14T03:32:33;4.70;;;2.47;;
38603;SDS011;24924;50.054;8.790;2023-06-14T03:35:00;4.72;;;2.60;;
38603;SDS011;24924;50.054;8.790;2023-06-14T03:37:25;4.47;;;2.70;;
38603;SDS011;24924;50.054;8.790;2023-06-14T03:39:51;5.32;;;2.75;;
38603;SDS011;24924;50.054;8.790;2023-06-14T03:42:21;6.13;;;2.60;;
38603;SDS011;24924;50.054;8.790;2023-06-14T03:44:48;4.30;;;2.47;;
38603;SDS011;24924;50.054;8.790;2023-06-14T03:47:14;4.77;;;2.87;;
38603;SDS011;24924;50.054;8.790;2023-06-14T03:49:40;4.57;;;2.50;;
38603;SDS011;24924;50.054;8.790;2023-06-14T03:52:06;4.43;;;2.58;;
38603;SDS011;24924;50.054;8.790;2023-06-14T03:54:35;4.10;;;2.40;;
38603;SDS011;24924;50.054;8.790;2023-06-14T03:57:00;4.70;;;2.60;;
38603;SDS011;24924;50.054;8.790;2023-06-14T03:59:26;4.78;;;2.22;;
38603;SDS011;24924;50.054;8.790;2023-06-14T04:01:53;3.97;;;2.20;;
38603;SDS011;24924;50.054;8.790;2023-06-14T04:04:19;4.27;;;2.33;;
38603;SDS011;24924;50.054;8.790;2023-06-14T04:06:47;5.00;;;2.53;;
38603;SDS011;24924;50.054;8.790;2023-06-14T04:09:13;4.75;;;2.17;;
38603;SDS011;24924;50.054;8.790;2023-06-14T04:11:40;5.88;;;2.50;;
38603;SDS011;24924;50.054;8.790;2023-06-14T04:14:06;4.30;;;2.30;;
38603;SDS011;24924;50.054;8.790;2023-06-14T04:16:32;4.75;;;2.40;;
38603;SDS011;24924;50.054;8.790;2023-06-14T04:18:59;5.18;;;2.33;;
38603;SDS011;24924;50.054;8.790;2023-06-14T04:21:25;4.22;;;2.35;;
38603;SDS011;24924;50.054;8.790;2023-06-14T04:23:56;4.50;;;2.50;;
38603;SDS011;24924;50.054;8.790;2023-06-14T04:26:25;6.93;;;2.80;;
38603;SDS011;24924;50.054;8.790;2023-06-14T04:28:56;4.80;;;2.50;;
38603;SDS011;24924;50.054;8.790;2023-06-14T04:31:23;4.47;;;2.30;;
38603;SDS011;24924;50.054;8.790;2023-06-14T04:33:55;4.78;;;2.38;;
38603;SDS011;24924;50.054;8.790;2023-06-14T04:36:22;5.88;;;3.17;;
38603;SDS011;24924;50.054;8.790;2023-06-14T04:38:49;4.63;;;2.83;;
38603;SDS011;24924;50.054;8.790;2023-06-14T04:41:21;7.85;;;2.30;;
38603;SDS011;24924;50.054;8.790;2023-06-14T04:43:49;6.13;;;2.42;;
38603;SDS011;24924;50.054;8.790;2023-06-14T04:46:15;5.78;;;2.90;;
38603;SDS011;24924;50.054;8.790;2023-06-14T04:48:42;5.03;;;2.47;;
38603;SDS011;24924;50.054;8.790;2023-06-14T04:51:09;5.83;;;2.47;;
38603;SDS011;24924;50.054;8.790;2023-06-14T04:53:35;5.05;;;2.63;;
38603;SDS011;24924;50.054;8.790;2023-06-14T04:56:02;4.55;;;2.20;;
38603;SDS011;24924;50.054;8.790;2023-06-14T04:58:30;6.70;;;2.70;;
38603;SDS011;24924;50.054;8.790;2023-06-14T05:00:56;3.90;;;2.05;;
38603;SDS011;24924;50.054;8.790;2023-06-14T05:03:25;4.05;;;2.17;;
38603;SDS011;24924;50.054;8.790;2023-06-14T05:05:52;4.75;;;2.40;;
38603;SDS011;24924;50.054;8.790;2023-06-14T05:08:18;4.72;;;2.50;;
38603;SDS011;24924;50.054;8.790;2023-06-14T05:10:46;4.27;;;2.20;;
38603;SDS011;24924;50.054;8.790;2023-06-14T05:13:11;4.13;;;2.10;;
38603;SDS011;24924;50.054;8.790;2023-06-14T05:15:37;5.45;;;2.38;;
38603;SDS011;24924;50.054;8.790;2023-06-14T05:18:03;4.80;;;2.50;;
38603;SDS011;24924;50.054;8.790;2023-06-14T05:20:29;5.67;;;2.60;;
38603;SDS011;24924;50.054;8.790;2023-06-14T05:22:55;4.30;;;2.40;;
38603;SDS011;24924;50.054;8.790;2023-06-14T05:25:22;6.57;;;2.58;;
38603;SDS011;24924;50.054;8.790;2023-06-14T05:27:48;4.38;;;2.40;;
38603;SDS011;24924;50.054;8.790;2023-06-14T05:30:14;4.35;;;2.10;;
38603;SDS011;24924;50.054;8.790;2023-06-14T05:32:40;6.07;;;2.30;;
38603;SDS011;24924;50.054;8.790;2023-06-14T05:35:07;6.40;;;2.97;;
38603;SDS011;24924;50.054;8.790;2023-06-14T05:37:33;3.75;;;2.22;;
38603;SDS011;24924;50.054;8.790;2023-06-14T05:39:59;6.13;;;2.67;;
38603;SDS011;24924;50.054;8.790;2023-06-14T05:42:25;4.70;;;2.40;;
38603;SDS011;24924;50.054;8.790;2023-06-14T05:44:50;4.60;;;2.45;;
38603;SDS011;24924;50.054;8.790;2023-06-14T05:47:16;4.53;;;2.37;;
38603;SDS011;24924;50.054;8.790;2023-06-14T05:49:41;4.15;;;2.25;;
38603;SDS011;24924;50.054;8.790;2023-06-14T05:52:07;5.07;;;2.57;;
38603;SDS011;24924;50.054;8.790;2023-06-14T05:54:33;6.65;;;3.05;;
38603;SDS011;24924;50.054;8.790;2023-06-14T05:56:59;4.88;;;2.38;;
38603;SDS011;24924;50.054;8.790;2023-06-14T05:59:26;4.73;;;2.23;;
38603;SDS011;24924;50.054;8.790;2023-06-14T06:01:52;4.50;;;2.60;;
38603;SDS011;24924;50.054;8.790;2023-06-14T06:04:18;6.15;;;2.17;;
38603;SDS011;24924;50.054;8.790;2023-06-14T06:06:45;4.32;;;2.15;;
38603;SDS011;24924;50.054;8.790;2023-06-14T06:09:12;4.55;;;2.13;;
38603;SDS011;24924;50.054;8.790;2023-06-14T06:11:39;4.57;;;2.40;;
38603;SDS011;24924;50.054;8.790;2023-06-14T06:14:06;4.50;;;2.20;;
38603;SDS011;24924;50.054;8.790;2023-06-14T06:16:31;4.03;;;1.90;;
38603;SDS011;24924;50.054;8.790;2023-06-14T06:18:58;4.80;;;2.47;;
38603;SDS011;24924;50.054;8.790;2023-06-14T06:21:25;4.30;;;2.13;;
38603;SDS011;24924;50.054;8.790;2023-06-14T06:23:50;4.68;;;2.42;;
38603;SDS011;24924;50.054;8.790;2023-06-14T06:26:16;4.47;;;2.22;;
38603;SDS011;24924;50.054;8.790;2023-06-14T06:28:42;5.50;;;2.90;;
38603;SDS011;24924;50.054;8.790;2023-06-14T06:31:08;5.22;;;2.70;;
38603;SDS011;24924;50.054;8.790;2023-06-14T06:33:33;4.80;;;2.13;;
38603;SDS011;24924;50.054;8.790;2023-06-14T06:36:02;4.10;;;2.03;;
38603;SDS011;24924;50.054;8.790;2023-06-14T06:38:28;4.82;;;2.35;;
38603;SDS011;24924;50.054;8.790;2023-06-14T06:40:53;4.07;;;2.27;;
38603;SDS011;24924;50.054;8.790;2023-06-14T06:43:19;4.18;;;2.22;;
38603;SDS011;24924;50.054;8.790;2023-06-14T06:45:47;3.92;;;2.13;;
38603;SDS011;24924;50.054;8.790;2023-06-14T06:48:12;7.72;;;2.65;;
38603;SDS011;24924;50.054;8.790;2023-06-14T06:50:38;4.10;;;2.30;;
38603;SDS011;24924;50.054;8.790;2023-06-14T06:53:04;9.10;;;2.37;;
38603;SDS011;24924;50.054;8.790;2023-06-14T06:55:30;4.35;;;2.20;;
38603;SDS011;24924;50.054;8.790;2023-06-14T06:57:56;4.85;;;1.85;;
38603;SDS011;24924;50.054;8.790;2023-06-14T07:00:22;3.65;;;1.90;;
38603;SDS011;24924;50.054;8.790;2023-06-14T07:02:48;6.47;;;2.43;;
38603;SDS011;24924;50.054;8.790;2023-06-14T07:05:14;3.60;;;1.90;;
38603;SDS011;24924;50.054;8.790;2023-06-14T07:07:39;4.22;;;2.13;;
38603;SDS011;24924;50.054;8.790;2023-06-14T07:10:05;4.63;;;2.20;;
38603;SDS011;24924;50.054;8.790;2023-06-14T07:12:35;4.05;;;1.77;;
38603;SDS011;24924;50.054;8.790;2023-06-14T07:15:05;4.07;;;2.10;;
38603;SDS011;24924;50.054;8.790;2023-06-14T07:17:34;3.78;;;1.70;;
38603;SDS011;24924;50.054;8.790;2023-06-14T07:20:02;4.07;;;2.00;;
38603;SDS011;24924;50.054;8.790;2023-06-14T07:22:38;3.60;;;1.70;;
38603;SDS011;24924;50.054;8.790;2023-06-14T07:25:06;4.07;;;1.90;;
38603;SDS011;24924;50.054;8.790;2023-06-14T07:27:33;4.28;;;1.83;;
38603;SDS011;24924;50.054;8.790;2023-06-14T07:29:59;3.85;;;1.67;;
38603;SDS011;24924;50.054;8.790;2023-06-14T07:32:25;3.63;;;1.63;;
38603;SDS011;24924;50.054;8.790;2023-06-14T07:34:51;4.18;;;1.70;;
38603;SDS011;24924;50.054;8.790;2023-06-14T07:37:16;3.60;;;1.70;;
38603;SDS011;24924;50.054;8.790;2023-06-14T07:39:42;3.17;;;1.40;;
38603;SDS011;24924;50.054;8.790;2023-06-14T07:42:07;3.50;;;1.58;;
38603;SDS011;24924;50.054;8.790;2023-06-14T07:44:33;3.80;;;1.63;;
38603;SDS011;24924;50.054;8.790;2023-06-14T07:46:58;4.38;;;1.85;;
38603;SDS011;24924;50.054;8.790;2023-06-14T07:49:26;4.60;;;1.40;;
38603;SDS011;24924;50.054;8.790;2023-06-14T07:51:51;3.75;;;1.70;;
38603;SDS011;24924;50.054;8.790;2023-06-14T07:54:19;3.95;;;1.85;;
38603;SDS011;24924;50.054;8.790;2023-06-14T07:56:49;3.58;;;1.58;;
38603;SDS011;24924;50.054;8.790;2023-06-14T07:59:15;3.63;;;1.67;;
38603;SDS011;24924;50.054;8.790;2023-06-14T08:01:42;3.67;;;1.50;;
38603;SDS011;24924;50.054;8.790;2023-06-14T08:04:12;4.43;;;1.75;;
38603;SDS011;24924;50.054;8.790;2023-06-14T08:06:38;4.22;;;1.98;;
38603;SDS011;24924;50.054;8.790;2023-06-14T08:09:04;3.58;;;1.60;;
38603;SDS011;24924;50.054;8.790;2023-06-14T08:11:31;3.22;;;1.60;;
38603;SDS011;24924;50.054;8.790;2023-06-14T08:13:57;4.13;;;1.83;;
38603;SDS011;24924;50.054;8.790;2023-06-14T08:16:23;4.00;;;1.40;;
38603;SDS011;24924;50.054;8.790;2023-06-14T08:18:48;3.65;;;1.67;;
38603;SDS011;24924;50.054;8.790;2023-06-14T08:21:14;3.90;;;1.63;;
38603;SDS011;24924;50.054;8.790;2023-06-14T08:23:41;4.25;;;1.88;;
38603;SDS011;24924;50.054;8.790;2023-06-14T08:26:09;3.20;;;1.40;;
38603;SDS011;24924;50.054;8.790;2023-06-14T08:28:36;3.50;;;1.50;;
38603;SDS011;24924;50.054;8.790;2023-06-14T08:31:02;3.80;;;1.70;;
38603;SDS011;24924;50.054;8.790;2023-06-14T08:33:28;4.00;;;1.70;;
38603;SDS011;24924;50.054;8.790;2023-06-14T08:35:53;4.03;;;1.77;;
38603;SDS011;24924;50.054;8.790;2023-06-14T08:38:19;3.88;;;1.67;;
38603;SDS011;24924;50.054;8.790;2023-06-14T08:40:47;3.67;;;1.58;;
38603;SDS011;24924;50.054;8.790;2023-06-14T08:43:16;3.70;;;1.63;;
38603;SDS011;24924;50.054;8.790;2023-06-14T08:45:42;3.83;;;1.48;;
38603;SDS011;24924;50.054;8.790;2023-06-14T08:48:09;3.63;;;1.80;;
38603;SDS011;24924;50.054;8.790;2023-06-14T08:50:35;3.35;;;1.38;;
38603;SDS011;24924;50.054;8.790;2023-06-14T08:53:02;3.90;;;1.70;;
38603;SDS011;24924;50.054;8.790;2023-06-14T08:55:28;4.03;;;1.75;;
38603;SDS011;24924;50.054;8.790;2023-06-14T08:57:56;3.50;;;1.60;;
38603;SDS011;24924;50.054;8.790;2023-06-14T09:00:26;3.92;;;1.60;;
38603;SDS011;24924;50.054;8.790;2023-06-14T09:02:53;4.32;;;1.70;;
38603;SDS011;24924;50.054;8.790;2023-06-14T09:05:23;3.40;;;1.20;;
38603;SDS011;24924;50.054;8.790;2023-06-14T09:07:50;3.85;;;1.40;;
38603;SDS011;24924;50.054;8.790;2023-06-14T09:10:17;3.30;;;1.60;;
38603;SDS011;24924;50.054;8.790;2023-06-14T09:12:44;3.90;;;1.50;;
38603;SDS011;24924;50.054;8.790;2023-06-14T09:15:10;3.50;;;1.58;;
38603;SDS011;24924;50.054;8.790;2023-06-14T09:17:36;3.53;;;1.43;;
38603;SDS011;24924;50.054;8.790;2023-06-14T09:20:03;3.40;;;1.50;;
38603;SDS011;24924;50.054;8.790;2023-06-14T09:22:39;3.58;;;1.45;;
38603;SDS011;24924;50.054;8.790;2023-06-14T09:25:05;3.90;;;1.70;;
38603;SDS011;24924;50.054;8.790;2023-06-14T09:27:31;4.20;;;1.52;;
38603;SDS011;24924;50.054;8.790;2023-06-14T09:29:58;3.27;;;1.40;;
38603;SDS011;24924;50.054;8.790;2023-06-14T09:32:24;3.38;;;1.40;;
38603;SDS011;24924;50.054;8.790;2023-06-14T09:34:50;3.95;;;1.80;;
38603;SDS011;24924;50.054;8.790;2023-06-14T09:37:26;3.55;;;1.40;;
38603;SDS011;24924;50.054;8.790;2023-06-14T09:39:53;3.10;;;1.30;;
38603;SDS011;24924;50.054;8.790;2023-06-14T09:42:19;3.40;;;1.20;;
38603;SDS011;24924;50.054;8.790;2023-06-14T09:44:48;3.40;;;1.05;;
38603;SDS011;24924;50.054;8.790;2023-06-14T09:47:15;3.50;;;1.20;;
38603;SDS011;24924;50.054;8.790;2023-06-14T09:49:41;4.15;;;1.52;;
38603;SDS011;24924;50.054;8.790;2023-06-14T09:52:12;3.80;;;1.47;;
38603;SDS011;24924;50.054;8.790;2023-06-14T09:54:44;3.30;;;1.38;;
38603;SDS011;24924;50.054;8.790;2023-06-14T09:57:12;3.53;;;1.40;;
38603;SDS011;24924;50.054;8.790;2023-06-14T09:59:40;3.75;;;1.55;;
38603;SDS011;24924;50.054;8.790;2023-06-14T10:02:09;3.40;;;1.40;;
38603;SDS011;24924;50.054;8.790;2023-06-14T10:05:04;3.23;;;1.40;;
38603;SDS011;24924;50.054;8.790;2023-06-14T10:07:47;3.60;;;1.38;;
38603;SDS011;24924;50.054;8.790;2023-06-14T10:10:17;3.50;;;1.70;;
38603;SDS011;24924;50.054;8.790;2023-06-14T10:12:44;4.70;;;1.83;;
38603;SDS011;24924;50.054;8.790;2023-06-14T10:15:11;3.67;;;1.50;;
38603;SDS011;24924;50.054;8.790;2023-06-14T10:17:52;3.70;;;1.70;;
38603;SDS011;24924;50.054;8.790;2023-06-14T10:20:42;3.40;;;1.50;;
38603;SDS011;24924;50.054;8.790;2023-06-14T10:23:21;3.75;;;1.73;;
38603;SDS011;24924;50.054;8.790;2023-06-14T10:25:58;5.10;;;1.67;;
38603;SDS011;24924;50.054;8.790;2023-06-14T10:28:25;3.53;;;1.60;;
38603;SDS011;24924;50.054;8.790;2023-06-14T10:31:01;3.10;;;1.30;;
38603;SDS011;24924;50.054;8.790;2023-06-14T10:33:34;4.38;;;1.60;;
38603;SDS011;24924;50.054;8.790;2023-06-14T10:36:34;3.25;;;1.30;;
38603;SDS011;24924;50.054;8.790;2023-06-14T10:41:33;4.55;;;1.75;;
38603;SDS011;24924;50.054;8.790;2023-06-14T10:44:10;3.37;;;1.50;;
38603;SDS011;24924;50.054;8.790;2023-06-14T10:46:40;3.72;;;1.55;;
38603;SDS011;24924;50.054;8.790;2023-06-14T10:49:10;3.45;;;1.55;;
38603;SDS011;24924;50.054;8.790;2023-06-14T10:51:41;3.30;;;1.30;;
38603;SDS011;24924;50.054;8.790;2023-06-14T10:54:14;3.53;;;1.48;;
38603;SDS011;24924;50.054;8.790;2023-06-14T10:56:50;3.40;;;1.40;;
38603;SDS011;24924;50.054;8.790;2023-06-14T10:59:17;3.58;;;1.45;;
38603;SDS011;24924;50.054;8.790;2023-06-14T11:01:58;3.40;;;1.58;;
38603;SDS011;24924;50.054;8.790;2023-06-14T11:04:34;3.30;;;1.40;;
38603;SDS011;24924;50.054;8.790;2023-06-14T11:10:28;3.28;;;1.30;;
38603;SDS011;24924;50.054;8.790;2023-06-14T11:13:07;3.45;;;1.40;;
38603;SDS011;24924;50.054;8.790;2023-06-14T11:15:34;3.15;;;1.33;;
38603;SDS011;24924;50.054;8.790;2023-06-14T11:18:01;3.30;;;1.40;;
38603;SDS011;24924;50.054;8.790;2023-06-14T11:20:30;3.38;;;1.50;;
38603;SDS011;24924;50.054;8.790;2023-06-14T11:22:57;3.58;;;1.40;;
38603;SDS011;24924;50.054;8.790;2023-06-14T11:25:24;3.50;;;1.50;;
38603;SDS011;24924;50.054;8.790;2023-06-14T11:27:50;3.38;;;1.48;;
38603;SDS011;24924;50.054;8.790;2023-06-14T11:30:16;5.07;;;1.80;;
38603;SDS011;24924;50.054;8.790;2023-06-14T11:32:45;3.38;;;1.52;;
38603;SDS011;24924;50.054;8.790;2023-06-14T11:35:19;3.60;;;1.67;;
38603;SDS011;24924;50.054;8.790;2023-06-14T11:37:48;3.80;;;1.50;;
38603;SDS011;24924;50.054;8.790;2023-06-14T11:40:14;4.03;;;1.75;;
38603;SDS011;24924;50.054;8.790;2023-06-14T11:42:41;3.33;;;1.50;;
38603;SDS011;24924;50.054;8.790;2023-06-14T11:45:07;3.50;;;1.60;;
38603;SDS011;24924;50.054;8.790;2023-06-14T11:47:35;3.67;;;1.73;;
38603;SDS011;24924;50.054;8.790;2023-06-14T11:50:01;3.03;;;1.40;;
38603;SDS011;24924;50.054;8.790;2023-06-14T11:52:28;4.60;;;1.77;;
38603;SDS011;24924;50.054;8.790;2023-06-14T11:54:54;3.55;;;1.50;;
38603;SDS011;24924;50.054;8.790;2023-06-14T11:57:20;3.60;;;1.60;;
38603;SDS011;24924;50.054;8.790;2023-06-14T11:59:46;3.72;;;1.80;;
38603;SDS011;24924;50.054;8.790;2023-06-14T12:02:15;3.90;;;1.77;;
38603;SDS011;24924;50.054;8.790;2023-06-14T12:04:42;3.95;;;1.83;;
38603;SDS011;24924;50.054;8.790;2023-06-14T12:07:11;4.38;;;2.10;;
38603;SDS011;24924;50.054;8.790;2023-06-14T12:09:41;3.90;;;1.70;;
38603;SDS011;24924;50.054;8.790;2023-06-14T12:12:09;4.18;;;1.90;;
38603;SDS011;24924;50.054;8.790;2023-06-14T12:14:37;3.85;;;1.70;;
38603;SDS011;24924;50.054;8.790;2023-06-14T12:17:06;4.77;;;1.80;;
38603;SDS011;24924;50.054;8.790;2023-06-14T12:19:32;3.92;;;1.80;;
38603;SDS011;24924;50.054;8.790;2023-06-14T12:21:59;3.97;;;1.70;;
38603;SDS011;24924;50.054;8.790;2023-06-14T12:24:29;3.80;;;1.73;;
38603;SDS011;24924;50.054;8.790;2023-06-14T12:26:57;3.92;;;1.92;;
38603;SDS011;24924;50.054;8.790;2023-06-14T12:29:25;4.57;;;1.90;;
38603;SDS011;24924;50.054;8.790;2023-06-14T12:31:51;3.63;;;1.70;;
38603;SDS011;24924;50.054;8.790;2023-06-14T12:34:19;4.57;;;1.85;;
38603;SDS011;24924;50.054;8.790;2023-06-14T12:36:46;3.92;;;1.80;;
38603;SDS011;24924;50.054;8.790;2023-06-14T12:39:12;4.20;;;1.83;;
38603;SDS011;24924;50.054;8.790;2023-06-14T12:41:38;3.90;;;1.73;;
38603;SDS011;24924;50.054;8.790;2023-06-14T12:44:06;3.60;;;1.85;;
38603;SDS011;24924;50.054;8.790;2023-06-14T12:46:32;3.92;;;1.65;;
38603;SDS011;24924;50.054;8.790;2023-06-14T12:48:59;3.95;;;1.75;;
38603;SDS011;24924;50.054;8.790;2023-06-14T12:51:26;3.83;;;1.60;;
38603;SDS011;24924;50.054;8.790;2023-06-14T12:53:52;4.47;;;1.60;;
38603;SDS011;24924;50.054;8.790;2023-06-14T12:56:18;3.65;;;1.63;;
38603;SDS011;24924;50.054;8.790;2023-06-14T12:58:45;3.60;;;1.73;;
38603;SDS011;24924;50.054;8.790;2023-06-14T13:01:10;3.93;;;1.90;;
38603;SDS011;24924;50.054;8.790;2023-06-14T13:03:36;3.85;;;1.85;;
38603;SDS011;24924;50.054;8.790;2023-06-14T13:06:02;3.93;;;1.50;;
38603;SDS011;24924;50.054;8.790;2023-06-14T13:08:29;3.47;;;1.42;;
38603;SDS011;24924;50.054;8.790;2023-06-14T13:10:55;3.97;;;1.75;;
38603;SDS011;24924;50.054;8.790;2023-06-14T13:13:21;3.90;;;1.70;;
38603;SDS011;24924;50.054;8.790;2023-06-14T13:15:47;3.38;;;1.50;;
38603;SDS011;24924;50.054;8.790;2023-06-14T13:18:14;3.92;;;1.58;;
38603;SDS011;24924;50.054;8.790;2023-06-14T13:20:39;3.87;;;1.80;;
38603;SDS011;24924;50.054;8.790;2023-06-14T13:23:05;4.10;;;1.63;;
38603;SDS011;24924;50.054;8.790;2023-06-14T13:25:33;4.63;;;1.45;;
38603;SDS011;24924;50.054;8.790;2023-06-14T13:28:00;3.67;;;1.47;;
38603;SDS011;24924;50.054;8.790;2023-06-14T13:30:25;3.60;;;1.40;;
38603;SDS011;24924;50.054;8.790;2023-06-14T13:32:51;4.00;;;1.60;;
38603;SDS011;24924;50.054;8.790;2023-06-14T13:35:18;3.55;;;1.38;;
38603;SDS011;24924;50.054;8.790;2023-06-14T13:37:44;3.40;;;1.47;;
38603;SDS011;24924;50.054;8.790;2023-06-14T13:40:11;4.15;;;1.52;;
38603;SDS011;24924;50.054;8.790;2023-06-14T13:42:37;3.60;;;1.60;;
38603;SDS011;24924;50.054;8.790;2023-06-14T13:45:04;3.60;;;1.42;;
38603;SDS011;24924;50.054;8.790;2023-06-14T13:47:30;4.20;;;1.33;;
38603;SDS011;24924;50.054;8.790;2023-06-14T13:49:57;3.87;;;1.50;;
38603;SDS011;24924;50.054;8.790;2023-06-14T13:52:23;3.50;;;1.45;;
38603;SDS011;24924;50.054;8.790;2023-06-14T13:54:49;3.40;;;1.50;;
38603;SDS011;24924;50.054;8.790;2023-06-14T13:57:15;4.23;;;1.90;;
38603;SDS011;24924;50.054;8.790;2023-06-14T13:59:42;4.00;;;1.45;;
38603;SDS011;24924;50.054;8.790;2023-06-14T14:02:10;3.50;;;1.50;;
38603;SDS011;24924;50.054;8.790;2023-06-14T14:04:36;3.55;;;1.48;;
38603;SDS011;24924;50.054;8.790;2023-06-14T14:07:03;5.70;;;1.70;;
38603;SDS011;24924;50.054;8.790;2023-06-14T14:09:29;3.40;;;1.50;;
38603;SDS011;24924;50.054;8.790;2023-06-14T14:11:56;4.85;;;1.40;;
38603;SDS011;24924;50.054;8.790;2023-06-14T14:14:21;3.50;;;1.40;;
38603;SDS011;24924;50.054;8.790;2023-06-14T14:16:49;4.55;;;1.60;;
38603;SDS011;24924;50.054;8.790;2023-06-14T14:19:17;3.70;;;1.60;;
38603;SDS011;24924;50.054;8.790;2023-06-14T14:21:44;4.00;;;1.33;;
38603;SDS011;24924;50.054;8.790;2023-06-14T14:24:10;3.33;;;1.30;;
38603;SDS011;24924;50.054;8.790;2023-06-14T14:26:36;5.05;;;1.40;;
38603;SDS011;24924;50.054;8.790;2023-06-14T14:29:01;3.37;;;1.43;;
38603;SDS011;24924;50.054;8.790;2023-06-14T14:31:28;3.00;;;1.30;;
38603;SDS011;24924;50.054;8.790;2023-06-14T14:33:54;3.63;;;1.50;;
38603;SDS011;24924;50.054;8.790;2023-06-14T14:36:19;5.20;;;1.70;;
38603;SDS011;24924;50.054;8.790;2023-06-14T14:38:45;3.35;;;1.38;;
38603;SDS011;24924;50.054;8.790;2023-06-14T14:41:12;3.53;;;1.30;;
38603;SDS011;24924;50.054;8.790;2023-06-14T14:43:38;3.50;;;1.50;;
38603;SDS011;24924;50.054;8.790;2023-06-14T14:46:04;3.70;;;1.40;;
38603;SDS011;24924;50.054;8.790;2023-06-14T14:48:30;3.22;;;1.35;;
38603;SDS011;24924;50.054;8.790;2023-06-14T14:50:56;3.53;;;1.35;;
38603;SDS011;24924;50.054;8.790;2023-06-14T14:53:22;3.33;;;1.30;;
38603;SDS011;24924;50.054;8.790;2023-06-14T14:55:48;3.50;;;1.40;;
38603;SDS011;24924;50.054;8.790;2023-06-14T14:58:14;3.40;;;1.42;;